Time;durP1;ratioP1;P1;durP2;ratioP2;P2;SDS_P1;SDS_P2;PMS_P1;PMS_P2;Temp;Humidity;BMP_temperature;BMP_pressure;BME280_temperature;BME280_humidity;BME280_pressure;Samples;Min_cycle;Max_cycle;Signal;HPM_P1;HPM_P2
2023/11/28 00:01:30;;;;;;;7.32;2.55;;;;;;;4.81;96.02;100489.78;5028504;28;20053;-45
2023/11/28 00:03:58;;;;;;;8.95;2.47;;;;;;;4.80;95.98;100494.44;5042358;28;20410;-45
2023/11/28 00:06:25;;;;;;;13.15;2.42;;;;;;;4.79;95.88;100503.78;5029902;28;20048;-44
2023/11/28 00:08:53;;;;;;;10.02;3.95;;;;;;;4.77;96.14;100486.84;5028977;28;20419;-46
2023/11/28 00:11:22;;;;;;;8.25;2.60;;;;;;;4.80;96.09;100485.41;5023468;28;20495;-47
2023/11/28 00:13:50;;;;;;;5.95;2.95;;;;;;;4.77;95.79;100486.03;5029332;28;20049;-44
2023/11/28 00:16:19;;;;;;;7.47;2.35;;;;;;;4.76;95.88;100487.16;5021590;28;20045;-45
2023/11/28 00:18:46;;;;;;;6.97;3.05;;;;;;;4.77;95.96;100483.28;5026482;28;20427;-45
2023/11/28 00:21:14;;;;;;;8.55;2.80;;;;;;;4.78;95.96;100490.41;5028699;28;20067;-44
2023/11/28 00:23:42;;;;;;;6.75;2.85;;;;;;;4.81;96.10;100503.50;5027949;28;20049;-44
2023/11/28 00:26:10;;;;;;;8.00;3.03;;;;;;;4.81;95.94;100498.00;5018560;28;20407;-45
2023/11/28 00:28:37;;;;;;;8.95;2.35;;;;;;;4.79;95.88;100505.75;5025038;28;20060;-50
2023/11/28 00:31:06;;;;;;;6.80;2.50;;;;;;;4.79;95.99;100500.25;5021164;28;20096;-44
2023/11/28 00:33:33;;;;;;;7.90;2.10;;;;;;;4.80;95.85;100501.84;5027857;28;20053;-46
2023/11/28 00:36:00;;;;;;;4.25;1.80;;;;;;;4.80;96.04;100499.13;5020896;28;20049;-44
2023/11/28 00:38:28;;;;;;;8.30;2.53;;;;;;;4.78;96.00;100495.88;5025865;28;20048;-45
2023/11/28 00:40:56;;;;;;;11.70;2.78;;;;;;;4.74;96.05;100494.88;5036091;28;20042;-45
2023/11/28 00:43:25;;;;;;;9.32;3.25;;;;;;;4.71;96.05;100490.81;5028325;28;20045;-46
2023/11/28 00:45:52;;;;;;;8.25;2.78;;;;;;;4.67;96.19;100494.50;5025730;28;20053;-45
2023/11/28 00:48:21;;;;;;;12.82;3.25;;;;;;;4.62;95.94;100497.38;5027438;28;20060;-45
2023/11/28 00:50:50;;;;;;;8.73;2.85;;;;;;;4.60;95.97;100505.13;5023695;28;20511;-47
2023/11/28 00:53:17;;;;;;;7.30;2.92;;;;;;;4.57;95.85;100516.69;5020844;28;20052;-46
2023/11/28 00:55:44;;;;;;;7.60;3.22;;;;;;;4.54;96.23;100518.13;5020338;28;20049;-45
2023/11/28 00:58:12;;;;;;;8.32;3.00;;;;;;;4.52;96.02;100514.06;5027262;28;20077;-45
2023/11/28 01:00:39;;;;;;;8.75;2.78;;;;;;;4.54;96.35;100514.56;5029763;28;20049;-44
2023/11/28 01:03:06;;;;;;;7.53;2.60;;;;;;;4.55;96.37;100507.97;5024965;28;20388;-45
2023/11/28 01:05:34;;;;;;;9.85;3.17;;;;;;;4.57;96.57;100513.97;5018058;28;20415;-49
2023/11/28 01:08:01;;;;;;;6.30;3.05;;;;;;;4.57;96.31;100523.00;5027749;28;20508;-44
2023/11/28 01:10:29;;;;;;;6.75;2.13;;;;;;;4.55;96.14;100524.44;5013726;28;20419;-45
2023/11/28 01:12:56;;;;;;;9.40;3.35;;;;;;;4.55;96.25;100527.16;5015194;28;20052;-45
2023/11/28 01:15:23;;;;;;;6.80;2.47;;;;;;;4.56;96.43;100528.78;5026984;28;20041;-45
2023/11/28 01:17:50;;;;;;;8.77;2.35;;;;;;;4.57;96.49;100538.63;5027397;28;20053;-46
2023/11/28 01:20:18;;;;;;;8.63;2.30;;;;;;;4.56;96.42;100534.25;5026561;28;20037;-47
2023/11/28 01:22:45;;;;;;;5.25;2.58;;;;;;;4.58;96.37;100543.00;5025159;28;20419;-47
2023/11/28 01:25:15;;;;;;;7.47;2.70;;;;;;;4.59;96.34;100541.88;5027245;28;20107;-46
2023/11/28 01:27:42;;;;;;;7.25;3.00;;;;;;;4.59;96.47;100539.94;5027826;28;20084;-46
2023/11/28 01:30:12;;;;;;;11.50;5.15;;;;;;;4.60;96.66;100527.03;5027355;28;20049;-45
2023/11/28 01:32:39;;;;;;;7.70;2.45;;;;;;;4.59;96.66;100537.19;5026215;28;20060;-45
2023/11/28 01:35:08;;;;;;;6.45;2.55;;;;;;;4.60;96.41;100538.00;5027719;28;20053;-45
2023/11/28 01:37:36;;;;;;;12.55;3.25;;;;;;;4.58;96.70;100535.56;5026759;28;20053;-45
2023/11/28 01:40:04;;;;;;;4.43;2.35;;;;;;;4.55;96.32;100538.94;5027286;28;20049;-45
2023/11/28 01:42:32;;;;;;;5.82;2.58;;;;;;;4.55;96.52;100538.13;5026055;28;20053;-45
2023/11/28 01:45:00;;;;;;;6.45;2.83;;;;;;;4.57;96.55;100538.63;5015561;28;20068;-47
2023/11/28 01:47:27;;;;;;;11.27;2.97;;;;;;;4.58;96.90;100532.03;5027142;28;20692;-49
2023/11/28 01:49:55;;;;;;;5.65;2.70;;;;;;;4.58;96.71;100534.78;5006728;28;20049;-46
2023/11/28 01:52:22;;;;;;;5.38;2.90;;;;;;;4.59;96.62;100530.91;5024702;28;20057;-45
2023/11/28 01:54:50;;;;;;;7.35;2.58;;;;;;;4.60;96.70;100538.00;5017425;28;20056;-45
2023/11/28 01:57:18;;;;;;;9.05;2.67;;;;;;;4.57;96.65;100533.97;5030870;28;20050;-45
2023/11/28 01:59:46;;;;;;;8.80;2.50;;;;;;;4.59;96.80;100522.66;5029660;28;20407;-45
2023/11/28 02:02:14;;;;;;;7.03;3.25;;;;;;;4.59;96.95;100531.72;5020380;28;20053;-45
2023/11/28 02:04:42;;;;;;;7.00;3.08;;;;;;;4.56;96.49;100520.53;5024423;28;20079;-45
2023/11/28 02:07:10;;;;;;;8.45;3.83;;;;;;;4.56;96.58;100531.50;5010846;28;20046;-45
2023/11/28 02:09:38;;;;;;;6.03;2.50;;;;;;;4.54;96.63;100525.53;5004312;28;20033;-45
2023/11/28 02:12:07;;;;;;;5.90;2.13;;;;;;;4.53;96.67;100534.88;5016772;28;20105;-45
2023/11/28 02:14:42;;;;;;;10.10;2.75;;;;;;;4.51;96.64;100528.91;5010297;28;20058;-47
2023/11/28 02:17:09;;;;;;;5.95;2.15;;;;;;;4.49;96.66;100515.50;5011005;28;20057;-44
2023/11/28 02:19:37;;;;;;;12.57;2.63;;;;;;;4.50;96.65;100516.31;5010768;28;20033;-47
2023/11/28 02:22:04;;;;;;;8.50;3.28;;;;;;;4.49;96.88;100509.22;5011245;28;20057;-45
2023/11/28 02:24:38;;;;;;;8.27;2.22;;;;;;;4.51;97.09;100506.97;5010569;28;20057;-45
2023/11/28 02:27:05;;;;;;;10.35;2.58;;;;;;;4.49;97.01;100509.22;5010819;28;20042;-45
2023/11/28 02:29:33;;;;;;;9.07;3.03;;;;;;;4.48;96.97;100518.53;5011034;28;20057;-46
2023/11/28 02:32:00;;;;;;;8.18;2.95;;;;;;;4.46;96.93;100518.88;5010913;28;20061;-45
2023/11/28 02:34:27;;;;;;;4.75;2.90;;;;;;;4.48;97.04;100518.53;5010675;28;20479;-46
2023/11/28 02:36:55;;;;;;;7.00;2.42;;;;;;;4.46;97.15;100513.38;5010222;28;20053;-45
2023/11/28 02:39:22;;;;;;;5.05;2.72;;;;;;;4.45;96.90;100524.66;5011099;28;20049;-45
2023/11/28 02:41:49;;;;;;;9.23;3.25;;;;;;;4.44;96.63;100526.59;5010322;28;20053;-45
2023/11/28 02:44:17;;;;;;;4.82;2.05;;;;;;;4.40;96.96;100522.03;4990702;28;20085;-45
2023/11/28 02:46:44;;;;;;;5.90;2.53;;;;;;;4.37;96.88;100517.19;5010320;28;20045;-46
2023/11/28 02:49:11;;;;;;;5.05;2.30;;;;;;;4.32;96.90;100516.16;5010261;28;20057;-46
2023/11/28 02:51:38;;;;;;;5.40;2.50;;;;;;;4.31;97.08;100520.00;5009958;28;20049;-45
2023/11/28 02:54:06;;;;;;;5.57;2.70;;;;;;;4.28;97.13;100533.53;5009795;28;20041;-45
2023/11/28 02:56:33;;;;;;;7.07;3.00;;;;;;;4.27;96.95;100526.44;5009927;28;21042;-46
2023/11/28 02:59:00;;;;;;;11.88;3.50;;;;;;;4.27;97.22;100532.72;5010316;28;20412;-47
2023/11/28 03:01:28;;;;;;;8.23;3.08;;;;;;;4.30;97.43;100534.84;5104527;23;20052;-45
2023/11/28 03:03:55;;;;;;;7.53;2.40;;;;;;;4.32;97.34;100535.34;5030222;28;20502;-45
2023/11/28 03:06:23;;;;;;;4.72;2.30;;;;;;;4.30;97.22;100532.13;5028599;28;20629;-45
2023/11/28 03:08:50;;;;;;;6.72;2.92;;;;;;;4.29;97.16;100527.75;5030068;28;20041;-47
2023/11/28 03:11:17;;;;;;;6.55;2.58;;;;;;;4.32;97.17;100538.09;5029194;28;20041;-45
2023/11/28 03:13:45;;;;;;;7.93;2.85;;;;;;;4.32;97.46;100527.13;5027353;28;20053;-45
2023/11/28 03:16:12;;;;;;;7.72;3.38;;;;;;;4.29;97.21;100533.22;5027802;28;20041;-46
2023/11/28 03:18:39;;;;;;;7.35;3.63;;;;;;;4.28;97.36;100542.59;5004688;28;20049;-45
2023/11/28 03:21:07;;;;;;;6.28;2.28;;;;;;;4.30;97.50;100545.81;5023627;28;20057;-46
2023/11/28 03:23:34;;;;;;;5.95;3.67;;;;;;;4.31;97.25;100552.91;5029421;28;20391;-45
2023/11/28 03:26:01;;;;;;;9.02;2.42;;;;;;;4.34;97.57;100559.72;5024321;28;20053;-48
2023/11/28 03:28:29;;;;;;;8.68;2.95;;;;;;;4.36;97.41;100553.91;5029820;28;20391;-45
2023/11/28 03:30:56;;;;;;;10.85;5.15;;;;;;;4.36;97.37;100556.66;5026115;28;20052;-45
2023/11/28 03:33:23;;;;;;;11.90;3.90;;;;;;;4.34;97.40;100559.72;5029508;28;20052;-46
2023/11/28 03:35:50;;;;;;;11.77;3.90;;;;;;;4.32;97.78;100554.53;5029725;28;20045;-46
2023/11/28 03:38:19;;;;;;;7.32;2.95;;;;;;;4.35;97.81;100553.09;5029770;28;20060;-47
2023/11/28 03:40:47;;;;;;;6.25;2.67;;;;;;;4.34;97.73;100546.03;5029143;28;20073;-47
2023/11/28 03:43:14;;;;;;;9.18;2.90;;;;;;;4.35;97.74;100546.81;5027363;28;20049;-45
2023/11/28 03:45:41;;;;;;;7.00;2.60;;;;;;;4.32;97.75;100548.25;5028662;28;20384;-44
2023/11/28 03:48:09;;;;;;;7.93;2.53;;;;;;;4.29;97.78;100543.38;5028977;28;20068;-44
2023/11/28 03:50:36;;;;;;;4.13;2.10;;;;;;;4.30;97.75;100539.53;5020644;28;20053;-45
2023/11/28 03:53:03;;;;;;;8.93;2.30;;;;;;;4.25;98.04;100537.72;5025741;28;20518;-45
2023/11/28 03:55:31;;;;;;;8.10;2.00;;;;;;;4.25;97.98;100542.38;5021908;28;20049;-52
2023/11/28 03:57:58;;;;;;;6.22;2.42;;;;;;;4.23;97.83;100539.97;5015880;28;20110;-46
2023/11/28 04:00:26;;;;;;;5.20;2.50;;;;;;;4.24;97.96;100536.09;5020605;28;20042;-46
2023/11/28 04:02:53;;;;;;;7.68;2.70;;;;;;;4.27;97.96;100535.47;5028933;28;20061;-47
2023/11/28 04:05:21;;;;;;;10.95;2.10;;;;;;;4.27;98.26;100532.72;5029376;28;20530;-45
2023/11/28 04:07:48;;;;;;;7.30;2.50;;;;;;;4.25;98.01;100543.19;5020659;28;20049;-47
2023/11/28 04:10:15;;;;;;;5.47;2.40;;;;;;;4.27;98.12;100535.47;5022458;28;20499;-45
2023/11/28 04:12:53;;;;;;;5.22;3.03;;;;;;;4.27;98.10;100540.94;5026538;28;20045;-44
2023/11/28 04:15:20;;;;;;;10.32;3.30;;;;;;;4.28;98.26;100536.28;5027144;28;20038;-46
2023/11/28 04:17:48;;;;;;;8.52;3.00;;;;;;;4.28;98.18;100528.88;5020365;28;20053;-45
2023/11/28 04:20:15;;;;;;;8.70;2.70;;;;;;;4.27;97.80;100543.69;5028924;28;20499;-46
2023/11/28 04:22:42;;;;;;;6.65;3.05;;;;;;;4.24;97.91;100546.22;5029586;28;20064;-45
2023/11/28 04:25:10;;;;;;;7.72;2.88;;;;;;;4.21;97.90;100542.16;5028294;28;20042;-45
2023/11/28 04:27:37;;;;;;;6.10;3.13;;;;;;;4.23;98.39;100545.44;5019904;28;20049;-45
2023/11/28 04:30:06;;;;;;;11.20;3.05;;;;;;;4.25;98.43;100547.84;5024932;28;20739;-47
2023/11/28 04:32:33;;;;;;;12.02;2.92;;;;;;;4.24;98.10;100538.00;5024347;28;20052;-45
2023/11/28 04:35:00;;;;;;;7.38;2.45;;;;;;;4.21;98.18;100539.44;5018816;28;20098;-45
2023/11/28 04:37:28;;;;;;;8.00;3.25;;;;;;;4.18;97.88;100537.31;5030245;28;20068;-45
2023/11/28 04:39:55;;;;;;;10.07;3.47;;;;;;;4.18;98.07;100540.03;5028825;28;20060;-45
2023/11/28 04:42:24;;;;;;;6.80;3.22;;;;;;;4.20;98.59;100543.31;5028598;28;20052;-46
2023/11/28 04:44:51;;;;;;;12.70;3.35;;;;;;;4.20;98.05;100548.78;5027601;28;20056;-46
2023/11/28 04:47:18;;;;;;;8.23;3.15;;;;;;;4.21;98.35;100536.69;5027745;28;20053;-44
2023/11/28 04:49:46;;;;;;;9.75;3.60;;;;;;;4.21;98.40;100539.44;5027255;28;20044;-45
2023/11/28 04:52:15;;;;;;;6.70;2.63;;;;;;;4.20;98.43;100540.56;5028882;28;20049;-46
2023/11/28 04:54:43;;;;;;;8.95;3.53;;;;;;;4.20;98.48;100529.63;5028234;28;20072;-46
2023/11/28 04:57:10;;;;;;;7.65;2.97;;;;;;;4.20;98.23;100528.78;5027996;28;20071;-45
2023/11/28 04:59:37;;;;;;;7.20;3.20;;;;;;;4.21;98.37;100533.13;5013761;28;20530;-46
2023/11/28 05:02:04;;;;;;;9.45;3.15;;;;;;;4.22;98.42;100532.03;5021553;28;20052;-45
2023/11/28 05:04:32;;;;;;;7.20;2.47;;;;;;;4.23;98.89;100533.66;5027716;28;20042;-45
2023/11/28 05:06:59;;;;;;;7.53;3.05;;;;;;;4.26;98.60;100544.78;5019298;28;20100;-45
2023/11/28 05:09:27;;;;;;;7.90;2.80;;;;;;;4.27;98.71;100540.13;5026062;28;20053;-45
2023/11/28 05:11:54;;;;;;;6.47;3.33;;;;;;;4.29;98.77;100546.09;5002282;28;20052;-46
2023/11/28 05:14:22;;;;;;;5.82;2.33;;;;;;;4.28;98.59;100537.09;5023802;28;20057;-46
2023/11/28 05:16:52;;;;;;;8.98;3.58;;;;;;;4.27;98.54;100535.47;5026843;28;20061;-46
2023/11/28 05:19:21;;;;;;;8.50;3.90;;;;;;;4.25;98.76;100542.38;5013415;28;20068;-45
2023/11/28 05:21:48;;;;;;;7.45;2.55;;;;;;;4.24;98.59;100543.47;5028109;28;20049;-44
2023/11/28 05:24:15;;;;;;;12.15;3.20;;;;;;;4.23;98.88;100548.19;5026882;28;20038;-46
2023/11/28 05:26:42;;;;;;;9.18;3.17;;;;;;;4.19;98.51;100549.91;5024827;28;20061;-47
2023/11/28 05:29:10;;;;;;;12.98;3.67;;;;;;;4.16;98.47;100545.03;5027313;28;20057;-45
2023/11/28 05:31:37;;;;;;;12.57;3.60;;;;;;;4.14;98.75;100540.97;5027819;28;20038;-45
2023/11/28 05:34:05;;;;;;;9.98;4.00;;;;;;;4.10;98.58;100546.25;5028003;28;20057;-46
2023/11/28 05:36:32;;;;;;;13.82;4.50;;;;;;;4.07;98.70;100538.66;5027279;28;20064;-45
2023/11/28 05:39:00;;;;;;;12.20;3.58;;;;;;;4.05;98.87;100543.63;5024489;28;20702;-45
2023/11/28 05:41:27;;;;;;;6.82;3.33;;;;;;;4.06;98.77;100548.00;5027077;28;20507;-45
2023/11/28 05:43:54;;;;;;;10.02;3.72;;;;;;;4.06;98.58;100542.50;5027318;28;20041;-46
2023/11/28 05:46:22;;;;;;;7.57;3.45;;;;;;;4.02;98.61;100540.72;5009066;28;20041;-48
2023/11/28 05:48:49;;;;;;;11.65;3.70;;;;;;;3.97;98.78;100541.59;5018581;28;20049;-45
2023/11/28 05:51:17;;;;;;;9.35;3.65;;;;;;;3.96;98.77;100537.25;5024468;28;20056;-45
2023/11/28 05:53:45;;;;;;;10.32;3.55;;;;;;;3.93;98.70;100535.13;5019518;28;20080;-45
2023/11/28 05:56:12;;;;;;;8.98;3.67;;;;;;;3.94;98.82;100535.94;5020058;28;20049;-45
2023/11/28 05:58:40;;;;;;;10.50;3.70;;;;;;;3.96;99.11;100540.00;5016026;28;20041;-45
2023/11/28 06:01:08;;;;;;;6.57;3.75;;;;;;;3.95;98.89;100538.38;5022482;28;20058;-45
2023/11/28 06:03:35;;;;;;;11.60;3.67;;;;;;;3.93;99.04;100545.25;5027152;28;20064;-45
2023/11/28 06:06:02;;;;;;;11.10;3.78;;;;;;;3.95;98.87;100535.63;5024509;28;20046;-45
2023/11/28 06:08:30;;;;;;;8.15;3.47;;;;;;;3.94;98.76;100544.16;5026302;28;20052;-45
2023/11/28 06:10:57;;;;;;;8.55;3.17;;;;;;;3.95;98.95;100549.31;5027450;28;20137;-45
2023/11/28 06:13:24;;;;;;;8.65;3.35;;;;;;;3.95;98.94;100543.84;5016093;28;20392;-45
2023/11/28 06:15:52;;;;;;;12.73;4.95;;;;;;;3.93;99.23;100548.81;5023629;28;20045;-46
2023/11/28 06:18:19;;;;;;;13.05;3.63;;;;;;;3.93;99.18;100546.09;5009343;28;20053;-45
2023/11/28 06:20:47;;;;;;;12.13;4.93;;;;;;;3.91;98.96;100542.84;5032290;28;20513;-45
2023/11/28 06:23:14;;;;;;;13.85;4.53;;;;;;;3.89;99.31;100545.06;5017209;28;20524;-45
2023/11/28 06:25:46;;;;;;;12.93;4.25;;;;;;;3.87;99.30;100541.81;5021491;28;20054;-49
2023/11/28 06:28:14;;;;;;;13.90;4.43;;;;;;;3.87;99.41;100557.44;5021331;28;20048;-48
2023/11/28 06:30:41;;;;;;;7.65;3.63;;;;;;;3.87;99.08;100544.56;5024621;28;20526;-49
2023/11/28 06:33:09;;;;;;;12.30;4.90;;;;;;;3.86;99.53;100548.44;5026821;28;20502;-50
2023/11/28 06:35:36;;;;;;;8.82;4.80;;;;;;;3.83;99.00;100546.31;5020054;28;20065;-47
2023/11/28 06:38:04;;;;;;;6.97;3.55;;;;;;;3.81;99.32;100540.31;5027616;28;20053;-45
2023/11/28 06:40:32;;;;;;;13.60;3.72;;;;;;;3.80;99.36;100546.09;5026983;28;20050;-45
2023/11/28 06:43:00;;;;;;;9.13;3.88;;;;;;;3.77;99.23;100542.03;5028142;28;20049;-46
2023/11/28 06:45:27;;;;;;;9.70;3.63;;;;;;;3.73;99.01;100551.16;5031551;28;20422;-45
2023/11/28 06:47:54;;;;;;;14.07;4.43;;;;;;;3.75;99.12;100544.28;5029979;28;20053;-46
2023/11/28 06:50:22;;;;;;;11.25;5.03;;;;;;;3.75;99.22;100544.28;5030432;28;20585;-47
2023/11/28 06:52:49;;;;;;;13.77;4.05;;;;;;;3.75;99.16;100549.75;5025442;28;20045;-45
2023/11/28 06:55:16;;;;;;;8.35;4.50;;;;;;;3.74;99.31;100542.63;5026026;28;20507;-45
2023/11/28 06:57:48;;;;;;;12.10;4.82;;;;;;;3.72;99.38;100547.63;5026951;28;20045;-45
2023/11/28 07:00:16;;;;;;;9.63;4.07;;;;;;;3.68;99.07;100539.19;5026524;28;20056;-45
2023/11/28 07:02:43;;;;;;;8.55;3.67;;;;;;;3.68;99.26;100549.31;5027468;28;20049;-45
2023/11/28 07:05:11;;;;;;;10.32;3.67;;;;;;;3.66;99.31;100551.56;5030464;28;20049;-46
2023/11/28 07:07:41;;;;;;;11.32;4.72;;;;;;;3.64;99.43;100540.13;5029150;28;20049;-45
2023/11/28 07:10:08;;;;;;;7.22;3.53;;;;;;;3.66;99.23;100540.63;5031160;28;20515;-45
2023/11/28 07:12:36;;;;;;;10.60;3.55;;;;;;;3.67;99.33;100536.78;5030726;28;20060;-45
2023/11/28 07:15:04;;;;;;;11.82;4.35;;;;;;;3.67;99.41;100542.25;5030229;28;20045;-48
2023/11/28 07:17:32;;;;;;;10.13;3.55;;;;;;;3.65;99.26;100541.75;5022083;28;20041;-46
2023/11/28 07:20:00;;;;;;;12.50;3.88;;;;;;;3.66;99.08;100544.16;5036287;28;20060;-46
2023/11/28 07:22:27;;;;;;;13.60;3.90;;;;;;;3.64;99.12;100540.13;5030081;28;20048;-47
2023/11/28 07:24:54;;;;;;;9.32;3.65;;;;;;;3.63;99.25;100538.47;5019305;28;20061;-46
2023/11/28 07:27:26;;;;;;;9.18;3.90;;;;;;;3.60;99.00;100548.13;5029190;28;20086;-45
2023/11/28 07:29:54;;;;;;;7.40;4.10;;;;;;;3.57;99.25;100548.72;5029335;28;20723;-53
2023/11/28 07:32:21;;;;;;;16.83;3.85;;;;;;;3.60;99.46;100544.59;5025924;28;20072;-45
2023/11/28 07:34:49;;;;;;;13.23;4.82;;;;;;;3.59;99.43;100542.97;5026294;28;20118;-45
2023/11/28 07:37:16;;;;;;;11.77;4.28;;;;;;;3.56;99.20;100546.28;5029362;28;20060;-45
2023/11/28 07:39:44;;;;;;;10.98;4.28;;;;;;;3.55;99.22;100544.66;5029969;28;20072;-45
2023/11/28 07:42:11;;;;;;;9.40;3.63;;;;;;;3.51;99.26;100549.94;5020524;28;20042;-45
2023/11/28 07:44:39;;;;;;;14.48;3.85;;;;;;;3.49;99.36;100545.91;5030011;28;20663;-45
2023/11/28 07:47:08;;;;;;;8.82;4.45;;;;;;;3.48;99.48;100547.81;5029480;28;20499;-48
2023/11/28 07:49:35;;;;;;;9.00;3.75;;;;;;;3.51;99.50;100549.94;5029310;28;20499;-46
2023/11/28 07:52:03;;;;;;;10.75;3.85;;;;;;;3.52;99.29;100539.81;5029964;28;20503;-44
2023/11/28 07:54:30;;;;;;;11.70;4.65;;;;;;;3.50;99.20;100544.75;5028925;28;20411;-48
2023/11/28 07:56:57;;;;;;;6.95;3.03;;;;;;;3.45;99.44;100537.47;5038901;28;20049;-45
2023/11/28 07:59:25;;;;;;;15.98;5.07;;;;;;;3.44;99.53;100543.25;5033159;28;20057;-45
2023/11/28 08:01:52;;;;;;;8.63;3.58;;;;;;;3.42;99.24;100549.00;5029311;28;20415;-45
2023/11/28 08:04:20;;;;;;;9.15;4.10;;;;;;;3.45;99.25;100542.13;5029465;28;20045;-46
2023/11/28 08:06:47;;;;;;;10.23;4.43;;;;;;;3.48;99.51;100545.06;5029006;28;20049;-46
2023/11/28 08:09:14;;;;;;;9.07;3.75;;;;;;;3.47;99.29;100546.19;5029234;28;20044;-44
2023/11/28 08:11:42;;;;;;;7.40;4.07;;;;;;;3.51;99.20;100539.00;5010997;28;20411;-47
2023/11/28 08:14:10;;;;;;;9.90;4.40;;;;;;;3.51;99.25;100539.00;5016848;28;20285;-45
2023/11/28 08:16:48;;;;;;;15.40;5.95;;;;;;;3.48;99.27;100545.06;5029003;28;20521;-46
2023/11/28 08:19:16;;;;;;;8.25;4.53;;;;;;;3.45;99.32;100539.38;5033174;28;20044;-46
2023/11/28 08:21:43;;;;;;;9.15;4.75;;;;;;;3.42;99.34;100545.47;5035662;28;20049;-46
2023/11/28 08:24:10;;;;;;;12.23;4.65;;;;;;;3.40;99.33;100542.22;5022385;28;20045;-45
2023/11/28 08:26:38;;;;;;;8.13;4.53;;;;;;;3.39;99.29;100557.03;5022250;28;20046;-45
2023/11/28 08:29:07;;;;;;;16.33;4.88;;;;;;;3.38;99.29;100555.41;5017178;28;20060;-45
2023/11/28 08:31:35;;;;;;;10.30;4.25;;;;;;;3.37;99.52;100548.28;4997816;28;20042;-46
2023/11/28 08:34:02;;;;;;;5.55;4.15;;;;;;;3.38;99.53;100555.41;5018754;28;20517;-45
2023/11/28 08:36:30;;;;;;;8.48;4.82;;;;;;;3.39;99.53;100548.81;5034783;28;20073;-45
2023/11/28 08:38:57;;;;;;;10.05;4.80;;;;;;;3.43;99.70;100552.56;5028873;28;20053;-44
2023/11/28 08:41:25;;;;;;;8.52;3.95;;;;;;;3.46;99.51;100546.50;5017975;28;20046;-45
2023/11/28 08:43:52;;;;;;;16.70;5.72;;;;;;;3.47;99.76;100542.63;5018232;28;20534;-46
2023/11/28 08:46:20;;;;;;;13.23;4.47;;;;;;;3.48;99.63;100547.00;5014786;28;20046;-45
2023/11/28 08:48:50;;;;;;;8.45;4.10;;;;;;;3.50;99.81;100550.22;5028068;28;20050;-46
2023/11/28 08:51:17;;;;;;;10.52;4.90;;;;;;;3.47;99.46;100548.91;5026684;28;20041;-46
2023/11/28 08:53:45;;;;;;;11.20;4.40;;;;;;;3.50;99.69;100559.25;5020871;28;20041;-45
2023/11/28 08:56:13;;;;;;;10.48;3.65;;;;;;;3.51;99.60;100563.63;5028259;28;20057;-48
2023/11/28 08:58:41;;;;;;;10.70;3.90;;;;;;;3.52;99.47;100559.75;5009263;28;20072;-45
2023/11/28 09:01:08;;;;;;;17.05;4.60;;;;;;;3.58;100.00;100563.22;5016933;28;20060;-44
2023/11/28 09:03:36;;;;;;;10.20;4.20;;;;;;;3.61;99.98;100565.34;5013739;28;20050;-46
2023/11/28 09:06:04;;;;;;;11.18;4.38;;;;;;;3.60;99.81;100569.22;5027817;28;20057;-45
2023/11/28 09:08:31;;;;;;;10.73;3.70;;;;;;;3.61;99.73;100559.88;5026967;28;20045;-44
2023/11/28 09:10:58;;;;;;;11.38;5.10;;;;;;;3.61;100.00;100554.41;5021533;28;20064;-47
2023/11/28 09:13:26;;;;;;;14.82;4.13;;;;;;;3.61;100.00;100546.19;5018939;28;20049;-49
2023/11/28 09:15:54;;;;;;;8.20;4.43;;;;;;;3.63;100.00;100558.47;5023304;28;20057;-47
2023/11/28 09:18:21;;;;;;;10.88;3.58;;;;;;;3.65;99.94;100555.44;5014983;28;20499;-44
2023/11/28 09:20:49;;;;;;;13.48;4.97;;;;;;;3.65;99.92;100556.22;5022221;28;20061;-46
2023/11/28 09:23:16;;;;;;;8.30;4.22;;;;;;;3.62;99.94;100558.78;5027200;28;20521;-48
2023/11/28 09:25:44;;;;;;;9.20;3.75;;;;;;;3.65;99.91;100542.53;5026060;28;20046;-45
2023/11/28 09:28:23;;;;;;;8.13;3.83;;;;;;;3.70;99.98;100541.63;5027613;28;20065;-46
2023/11/28 09:30:50;;;;;;;9.85;4.13;;;;;;;3.76;99.89;100545.88;5015757;28;20053;-44
2023/11/28 09:33:18;;;;;;;12.27;5.60;;;;;;;3.79;100.00;100538.97;5023057;28;20403;-43
2023/11/28 09:35:45;;;;;;;14.18;4.90;;;;;;;3.84;99.93;100547.13;5024574;28;20046;-44
2023/11/28 09:38:13;;;;;;;4.85;3.30;;;;;;;3.90;100.00;100552.16;5025692;28;20041;-44
2023/11/28 09:40:40;;;;;;;9.07;3.55;;;;;;;3.94;99.92;100547.72;5026994;28;20034;-45
2023/11/28 09:43:09;;;;;;;9.35;3.90;;;;;;;3.98;99.81;100554.19;5027418;28;20049;-46
2023/11/28 09:45:40;;;;;;;13.13;4.50;;;;;;;4.01;100.00;100545.38;5020723;28;20595;-46
2023/11/28 09:48:10;;;;;;;10.68;4.15;;;;;;;4.06;100.00;100552.66;5022580;28;20056;-45
2023/11/28 09:50:43;;;;;;;7.93;4.40;;;;;;;4.08;99.96;100548.50;5016304;28;20522;-45
2023/11/28 09:53:13;;;;;;;6.95;3.97;;;;;;;4.09;99.54;100550.13;5025096;28;20720;-44
2023/11/28 09:55:42;;;;;;;8.57;5.05;;;;;;;4.12;100.00;100555.00;5025968;28;20057;-45
2023/11/28 09:58:12;;;;;;;13.20;5.25;;;;;;;4.11;99.96;100555.28;5025924;28;20053;-45
2023/11/28 10:00:40;;;;;;;13.77;6.15;;;;;;;4.11;100.00;100552.53;5023184;28;20053;-45
2023/11/28 10:03:08;;;;;;;13.70;5.78;;;;;;;4.15;99.86;100559.88;5018699;28;20411;-51
2023/11/28 10:05:36;;;;;;;12.30;5.70;;;;;;;4.16;100.00;100555.16;5025151;28;20037;-47
2023/11/28 10:08:06;;;;;;;10.73;3.95;;;;;;;4.15;99.92;100559.88;5018148;28;20491;-49
2023/11/28 10:10:36;;;;;;;11.20;4.72;;;;;;;4.12;99.87;100557.72;5026089;28;20038;-46
2023/11/28 10:13:03;;;;;;;8.40;4.65;;;;;;;4.15;99.85;100568.09;5017800;28;20066;-46
2023/11/28 10:15:31;;;;;;;10.23;4.75;;;;;;;4.13;99.86;100561.28;5029640;28;20053;-45
2023/11/28 10:18:00;;;;;;;8.18;4.90;;;;;;;4.15;99.92;100565.34;5025867;28;20049;-46
2023/11/28 10:20:28;;;;;;;20.42;5.95;;;;;;;4.17;99.91;100563.09;5023034;28;20045;-45
2023/11/28 10:22:56;;;;;;;8.93;5.80;;;;;;;4.21;100.00;100564.09;5020735;28;20045;-45
2023/11/28 10:25:26;;;;;;;13.88;5.38;;;;;;;4.23;99.85;100567.34;5029251;28;20053;-47
2023/11/28 10:27:58;;;;;;;10.05;5.38;;;;;;;4.27;100.00;100568.34;5020924;28;20042;-45
2023/11/28 10:30:27;;;;;;;9.23;5.20;;;;;;;4.23;99.69;100564.63;5025767;28;20050;-49
2023/11/28 10:33:01;;;;;;;8.02;5.63;;;;;;;4.24;99.76;100565.41;5028300;28;20049;-45
2023/11/28 10:35:42;;;;;;;12.75;5.57;;;;;;;4.27;99.89;100565.63;5026151;28;20060;-44
2023/11/28 10:38:17;;;;;;;17.08;6.18;;;;;;;4.29;99.91;100571.59;5025228;28;20042;-45
2023/11/28 10:40:49;;;;;;;19.45;7.20;;;;;;;4.28;99.57;100566.44;5027537;28;20406;-46
2023/11/28 10:43:17;;;;;;;13.75;5.80;;;;;;;4.26;99.76;100558.50;5027421;28;20049;-46
2023/11/28 10:45:45;;;;;;;15.20;7.03;;;;;;;4.28;99.71;100561.75;5027257;28;20054;-45
2023/11/28 10:48:13;;;;;;;13.82;6.45;;;;;;;4.28;99.50;100561.75;5028131;28;20038;-44
2023/11/28 10:50:44;;;;;;;18.02;7.20;;;;;;;4.24;99.60;100562.66;5023686;28;20542;-47
2023/11/28 10:53:15;;;;;;;10.95;5.65;;;;;;;4.23;99.54;100550.91;5028533;28;20050;-47
2023/11/28 10:55:50;;;;;;;15.83;6.70;;;;;;;4.30;99.92;100550.47;5027466;28;20075;-45
2023/11/28 10:58:20;;;;;;;11.90;7.28;;;;;;;4.32;99.60;100551.78;5023907;28;20485;-48
2023/11/28 11:00:52;;;;;;;13.63;6.40;;;;;;;4.36;99.90;100542.97;5027190;28;20056;-45
2023/11/28 11:03:24;;;;;;;11.95;6.20;;;;;;;4.39;99.72;100551.38;4995012;28;20049;-49
2023/11/28 11:05:52;;;;;;;11.55;6.80;;;;;;;4.38;99.41;100546.19;5020375;28;20406;-47
2023/11/28 11:08:21;;;;;;;12.63;6.68;;;;;;;4.44;99.79;100550.44;5023871;28;20041;-45
2023/11/28 11:10:50;;;;;;;9.15;6.25;;;;;;;4.48;99.62;100557.75;5025426;28;20164;-49
2023/11/28 11:13:51;;;;;;;14.25;6.00;;;;;;;4.51;99.29;100548.09;5028061;28;20048;-45
2023/11/28 11:16:33;;;;;;;18.60;6.32;;;;;;;4.53;99.44;100538.44;5015092;28;20053;-45
2023/11/28 11:19:03;;;;;;;16.90;7.82;;;;;;;4.62;99.34;100542.06;5020776;28;20503;-45
2023/11/28 11:21:46;;;;;;;13.13;7.85;;;;;;;4.66;99.52;100534.03;5036546;28;20049;-48
2023/11/28 11:24:19;;;;;;;11.55;6.10;;;;;;;4.67;99.10;100541.94;5014752;28;20049;-44
2023/11/28 11:26:49;;;;;;;10.48;6.07;;;;;;;4.69;99.44;100536.94;5028497;28;20049;-46
2023/11/28 11:29:37;;;;;;;12.65;5.93;;;;;;;4.75;99.51;100532.16;5027277;28;20057;-47
2023/11/28 11:32:09;;;;;;;11.52;5.97;;;;;;;4.73;98.98;100527.00;5027579;28;20044;-47
2023/11/28 11:34:40;;;;;;;9.43;4.73;;;;;;;4.76;99.16;100533.78;5025354;28;20052;-48